createdAt,value
2022-08-05T09:14:56.855Z,27.84
2022-08-05T09:17:40.441Z,27.65
2022-08-05T09:20:08.346Z,27.23
2022-08-05T09:23:43.674Z,26.89
2022-08-05T09:26:52.037Z,27.34
2022-08-05T09:30:06.681Z,26.06
2022-08-05T09:33:17.098Z,26.26
2022-08-05T09:36:54.430Z,25.18
2022-08-05T09:39:52.027Z,24.85
2022-08-05T09:42:28.429Z,25.42
2022-08-05T09:46:04.552Z,25.32
2022-08-05T09:47:59.073Z,24.44
2022-08-05T09:50:49.892Z,24.84
2022-08-05T09:53:26.175Z,23.69
2022-08-05T09:56:16.905Z,23.40
2022-08-05T09:59:08.890Z,24.01
2022-08-05T10:02:29.420Z,23.42
2022-08-05T10:05:23.553Z,22.80
2022-08-05T10:08:36.381Z,22.49
2022-08-05T10:11:37.422Z,22.69
2022-08-05T10:14:38.838Z,21.96
2022-08-05T10:17:37.827Z,21.90
2022-08-05T10:20:28.763Z,21.50
2022-08-05T10:23:21.789Z,21.85
2022-08-05T10:26:05.354Z,21.80
2022-08-05T10:28:49.459Z,21.05
2022-08-05T10:32:52.274Z,20.07
2022-08-05T10:34:31.203Z,18.86
2022-08-05T10:37:11.006Z,19.44
2022-08-05T10:40:17.653Z,19.15
2022-08-05T10:43:12.609Z,20.38
2022-08-05T10:46:06.652Z,19.05
2022-08-05T10:49:10.447Z,19.93
2022-08-05T10:52:10.555Z,18.93
2022-08-05T10:55:05.326Z,19.71
2022-08-05T10:57:40.673Z,18.82
2022-08-05T11:00:22.800Z,19.75
2022-08-05T11:03:25.053Z,19.36
2022-08-05T11:06:04.497Z,17.92
2022-08-05T11:09:24.514Z,18.60
2022-08-05T11:12:54.279Z,17.85
2022-08-05T11:15:59.247Z,17.99
2022-08-05T11:18:34.046Z,17.24
2022-08-05T11:21:11.463Z,17.22
2022-08-05T11:24:05.020Z,16.78
2022-08-05T11:27:29.062Z,16.77
2022-08-05T11:30:36.982Z,16.54
2022-08-05T11:33:48.207Z,16.81
2022-08-05T11:36:33.921Z,15.84
2022-08-05T11:39:04.886Z,16.00
2022-08-05T11:42:19.674Z,16.57
2022-08-05T11:44:53.751Z,16.85
2022-08-05T11:47:49.751Z,16.67
2022-08-05T11:50:38.742Z,17.53
2022-08-05T11:53:06.383Z,16.87
2022-08-05T11:55:52.097Z,16.24
2022-08-05T11:58:41.358Z,16.02
2022-08-05T12:01:22.124Z,15.97
2022-08-05T12:03:57.424Z,16.24
2022-08-05T12:06:35.892Z,16.21
2022-08-05T12:09:38.485Z,15.46
2022-08-05T12:12:06.079Z,16.24
2022-08-05T12:14:52.693Z,16.25
2022-08-05T12:18:10.224Z,15.88
2022-08-05T12:20:33.436Z,15.83
2022-08-05T12:23:11.979Z,15.57
2022-08-05T12:25:53.390Z,15.95
2022-08-05T12:28:34.660Z,15.39
2022-08-05T12:31:32.543Z,15.73
2022-08-05T12:34:03.035Z,15.46
2022-08-05T12:36:43.588Z,14.81
2022-08-05T12:39:38.453Z,15.98
2022-08-05T12:42:17.858Z,15.64
2022-08-05T12:44:50.412Z,14.90
2022-08-05T12:47:36.548Z,15.21
2022-08-05T12:50:36.796Z,14.13
2022-08-05T12:53:06.862Z,14.64
2022-08-05T12:55:35.260Z,14.64
2022-08-05T12:58:37.994Z,14.65
2022-08-05T13:02:01.312Z,15.76
2022-08-05T13:03:51.535Z,14.85
2022-08-05T13:06:51.696Z,15.23
2022-08-05T13:09:27.917Z,15.09
2022-08-05T13:12:16.105Z,15.22
2022-08-05T13:15:06.802Z,15.12
2022-08-05T13:17:41.815Z,13.64
2022-08-05T13:20:24.644Z,13.75
2022-08-05T13:23:22.027Z,14.28
2022-08-05T13:26:37.494Z,13.41
2022-08-05T13:29:10.262Z,12.73
2022-08-05T13:32:09.486Z,12.06
2022-08-05T13:34:56.498Z,11.63
2022-08-05T13:37:34.371Z,11.17
2022-08-05T13:40:24.522Z,11.92
2022-08-05T13:43:01.040Z,12.56
2022-08-05T13:45:38.475Z,12.52
2022-08-05T13:48:57.874Z,12.90
2022-08-05T13:51:13.020Z,12.56
2022-08-05T13:53:48.516Z,12.54
2022-08-05T13:56:18.806Z,12.43
2022-08-05T13:58:54.684Z,12.11
2022-08-05T14:01:44.208Z,11.94
2022-08-05T14:04:28.091Z,12.18
2022-08-05T14:06:58.878Z,12.06
2022-08-05T14:09:46.221Z,11.19
2022-08-05T14:12:32.517Z,11.21
2022-08-05T14:16:03.795Z,11.28
2022-08-05T14:17:57.755Z,11.19
2022-08-05T14:20:31.876Z,11.29
2022-08-05T14:23:04.988Z,11.22
2022-08-05T14:26:03.186Z,10.94
2022-08-05T14:28:52.071Z,10.69
2022-08-05T14:32:03.673Z,10.64
2022-08-05T14:34:11.842Z,10.87
2022-08-05T14:36:39.104Z,11.60
2022-08-05T14:39:07.676Z,11.87
2022-08-05T14:41:42.875Z,11.04
2022-08-05T14:44:30.223Z,11.37
2022-08-05T14:46:58.228Z,11.02
2022-08-05T14:49:25.743Z,11.24
2022-08-05T14:52:36.283Z,11.36
2022-08-05T14:55:04.587Z,11.27
2022-08-05T14:57:53.892Z,11.73
2022-08-05T15:00:20.931Z,12.18
2022-08-05T15:02:55.685Z,11.82
2022-08-05T15:06:13.128Z,11.19
2022-08-05T15:08:58.156Z,11.04
2022-08-05T15:11:08.308Z,11.51
2022-08-05T15:13:46.059Z,11.48
2022-08-05T15:16:13.474Z,11.44
2022-08-05T15:18:42.259Z,11.01
2022-08-05T15:21:14.797Z,11.56
2022-08-05T15:23:47.922Z,11.80
2022-08-05T15:26:16.764Z,12.49
2022-08-05T15:28:59.158Z,11.84
2022-08-05T15:31:34.779Z,11.38
2022-08-05T15:34:18.524Z,12.08
2022-08-05T15:36:50.969Z,11.78
2022-08-05T15:41:03.936Z,11.19
2022-08-05T15:42:50.388Z,11.62
2022-08-05T15:44:54.383Z,12.26
2022-08-05T15:47:23.627Z,12.46
2022-08-05T15:49:56.720Z,11.34
2022-08-05T15:52:29.338Z,12.75
2022-08-05T15:55:16.438Z,11.58
2022-08-05T15:57:44.989Z,11.59
2022-08-05T16:00:12.785Z,13.00
2022-08-05T16:02:44.849Z,12.73
2022-08-05T16:05:13.369Z,12.11
2022-08-05T16:07:46.458Z,11.74
2022-08-05T16:10:25.313Z,11.49
2022-08-05T16:12:52.603Z,11.17
2022-08-05T16:15:23.454Z,11.59
2022-08-05T16:17:57.310Z,12.43
2022-08-05T16:20:25.556Z,11.84
2022-08-05T16:22:58.755Z,11.94
2022-08-05T16:25:34.200Z,12.63
2022-08-05T16:28:05.865Z,13.21
2022-08-05T16:30:36.372Z,13.27
2022-08-05T16:33:04.417Z,14.07
2022-08-05T16:35:43.070Z,14.92
2022-08-05T16:38:24.470Z,15.52
2022-08-05T16:41:00.259Z,16.30
2022-08-05T16:43:35.272Z,16.75
2022-08-05T16:46:23.774Z,17.50
2022-08-05T16:48:53.665Z,18.21
2022-08-05T16:51:24.084Z,18.36
2022-08-05T16:54:05.025Z,19.08
2022-08-05T16:56:41.460Z,19.73
2022-08-05T16:59:25.319Z,20.09
2022-08-05T17:01:57.316Z,20.55
2022-08-05T17:04:26.860Z,21.06
2022-08-05T17:07:11.365Z,21.49
2022-08-05T17:09:59.256Z,21.87
2022-08-05T17:12:51.384Z,22.18
2022-08-05T17:15:19.911Z,22.55
2022-08-05T17:17:54.479Z,23.02
2022-08-05T17:20:26.588Z,23.04
2022-08-05T17:22:55.658Z,23.55
2022-08-05T17:25:39.488Z,24.18
2022-08-05T17:28:15.415Z,24.30
2022-08-05T17:30:51.877Z,24.47
2022-08-05T17:33:20.773Z,24.87
2022-08-05T17:36:08.755Z,24.74
2022-08-05T17:38:36.638Z,25.00
2022-08-05T17:41:03.391Z,25.22
2022-08-05T17:43:53.147Z,25.63
2022-08-05T17:46:37.390Z,25.70
